KSDF

Louisville International Airport

Airport
ICAO code
KSDF
IATA Code
SDF
Summary
ICAO Region
NAM
ICAO Territory
Location

Louisville, Kentucky,

Serving
Louisville
Elevation
501 ft
Coordinates
38° 10' 27" N , 85° 44' 6" W
KCC
Airport LOS
Parallel Runway Operation
Airport WX
Cumulonimbus
Metar
Observation
KSDF 071756Z 36011G20KT 310V030 10SM FEW040 SCT050 BKN250 19/04 A3024 RMK AO2 SLP238 T01940044 10200 20139 58002
Station
Louisville, Standiford Field
Date/Time
2022-10-07 17:56:00
Wind direction
360°
Wind speed
11 kts
Lowest cloud amount
few clouds
Temperature
19.4°C
Dew point
4.4°C
Humidity
37%
Weather condition
n/a

Description

Louisville International Airport is a public and military use airport centrally located in the city of Louisville in Jefferson County, Kentucky. Its IATA airport code, SDF, is based on the airport's former name, Standiford Field.

Climatology

Humid “subtropical” climate (Köppen climate classification Cfa) - characterized by hot, humid summers and cool winters. Significant amounts of precipitation occur in all seasons in most areas. Winter rainfall (and sometimes snowfall) is associated with large storms that the westerlies steer from west to east. Most summer rainfall occurs during thunderstorms.

Runways

Designator Length Width Surface Rops
11/29 2210 46 CON Yes/Yes
17L/35R 2615 46 CON Yes/Yes
17R/35L 3307 46 CON Yes/Yes

Airport map

Aerial View

SKYbrary Partners:

Safety knowledge contributed by: